Terminal Aerodrome Forecast
Issued by NWS Shreveport, LA

Home | Current Version | Previous Version | Text Only | Print | Product List | Glossary On
Versions: 1 2 3 4 5 6 7 8 9 10 11 12 13 14 15 16 17 18 19 20 21 22
363
FTUS44 KSHV 281458 AAA
TAFTXK
TAF AMD
KTXK 281458Z 2815/0112 18011KT 4SM BR OVC008
     FM281600 20013G20KT P6SM BKN015
     FM282100 19015G24KT P6SM BKN035
     FM282200 20013KT P6SM BKN040
     FM010000 19012KT P6SM VCTS BKN040CB
      TEMPO 0108/0112 VRB15G25KT 3SM TSRA BKN030CB=

USA.gov is the U.S. government's official web portal to all federal, state and local government web resources and services.